sensor_id;sensor_type;location;lat;lon;timestamp;pressure;altitude;pressure_sealevel;temperature;humidity
6028;BME280;3042;43.194;27.646;2023-04-24T00:00:04;101509.31;;;14.24;100.00
6028;BME280;3042;43.194;27.646;2023-04-24T00:02:32;101551.78;;;14.45;100.00
6028;BME280;3042;43.194;27.646;2023-04-24T00:04:59;101598.16;;;14.75;100.00
6028;BME280;3042;43.194;27.646;2023-04-24T00:07:29;101583.84;;;14.86;100.00
6028;BME280;3042;43.194;27.646;2023-04-24T00:09:57;101576.16;;;14.89;100.00
6028;BME280;3042;43.194;27.646;2023-04-24T00:12:24;101575.34;;;14.90;100.00
6028;BME280;3042;43.194;27.646;2023-04-24T00:14:52;101580.59;;;14.92;100.00
6028;BME280;3042;43.194;27.646;2023-04-24T00:17:19;101583.03;;;14.87;100.00
6028;BME280;3042;43.194;27.646;2023-04-24T00:19:47;101574.41;;;14.67;100.00
6028;BME280;3042;43.194;27.646;2023-04-24T00:22:14;101552.56;;;14.43;100.00
6028;BME280;3042;43.194;27.646;2023-04-24T00:24:43;101592.41;;;14.63;100.00
6028;BME280;3042;43.194;27.646;2023-04-24T00:27:10;101602.41;;;14.53;100.00
6028;BME280;3042;43.194;27.646;2023-04-24T00:29:37;101609.00;;;14.45;100.00
6028;BME280;3042;43.194;27.646;2023-04-24T00:32:04;101598.72;;;14.48;100.00
6028;BME280;3042;43.194;27.646;2023-04-24T00:34:31;101596.19;;;14.50;100.00
6028;BME280;3042;43.194;27.646;2023-04-24T00:36:59;101524.81;;;14.01;100.00
6028;BME280;3042;43.194;27.646;2023-04-24T00:39:26;101564.84;;;14.26;100.00
6028;BME280;3042;43.194;27.646;2023-04-24T00:41:54;101594.34;;;14.47;100.00
6028;BME280;3042;43.194;27.646;2023-04-24T00:44:23;101594.84;;;14.39;100.00
6028;BME280;3042;43.194;27.646;2023-04-24T00:46:50;101464.22;;;13.62;100.00
6028;BME280;3042;43.194;27.646;2023-04-24T00:49:20;101612.34;;;14.43;100.00
6028;BME280;3042;43.194;27.646;2023-04-24T00:51:48;101595.88;;;14.42;100.00
6028;BME280;3042;43.194;27.646;2023-04-24T00:54:16;101598.31;;;14.39;100.00
6028;BME280;3042;43.194;27.646;2023-04-24T00:56:44;101592.31;;;14.40;100.00
6028;BME280;3042;43.194;27.646;2023-04-24T00:59:13;101452.53;;;13.52;100.00
6028;BME280;3042;43.194;27.646;2023-04-24T01:01:43;101601.69;;;14.36;100.00
6028;BME280;3042;43.194;27.646;2023-04-24T01:04:11;101594.56;;;14.32;100.00
6028;BME280;3042;43.194;27.646;2023-04-24T01:06:39;101592.03;;;14.34;100.00
6028;BME280;3042;43.194;27.646;2023-04-24T01:09:07;101604.66;;;14.25;100.00
6028;BME280;3042;43.194;27.646;2023-04-24T01:11:35;101596.03;;;14.26;100.00
6028;BME280;3042;43.194;27.646;2023-04-24T01:14:03;101593.97;;;14.19;100.00
6028;BME280;3042;43.194;27.646;2023-04-24T01:16:31;101595.50;;;14.13;100.00
6028;BME280;3042;43.194;27.646;2023-04-24T01:18:59;101606.13;;;13.99;100.00
6028;BME280;3042;43.194;27.646;2023-04-24T01:21:27;101498.97;;;13.26;100.00
6028;BME280;3042;43.194;27.646;2023-04-24T01:23:58;101590.41;;;13.96;100.00
6028;BME280;3042;43.194;27.646;2023-04-24T01:26:25;101586.63;;;13.89;100.00
6028;BME280;3042;43.194;27.646;2023-04-24T01:28:53;101592.38;;;13.82;100.00
6028;BME280;3042;43.194;27.646;2023-04-24T01:31:20;101589.78;;;13.82;100.00
6028;BME280;3042;43.194;27.646;2023-04-24T01:33:47;101585.53;;;13.84;100.00
6028;BME280;3042;43.194;27.646;2023-04-24T01:36:16;101584.91;;;13.89;100.00
6028;BME280;3042;43.194;27.646;2023-04-24T01:38:44;101537.81;;;13.62;100.00
6028;BME280;3042;43.194;27.646;2023-04-24T01:41:12;101579.94;;;13.94;100.00
6028;BME280;3042;43.194;27.646;2023-04-24T01:43:39;101518.00;;;13.45;100.00
6028;BME280;3042;43.194;27.646;2023-04-24T01:46:07;101494.00;;;13.31;100.00
6028;BME280;3042;43.194;27.646;2023-04-24T01:48:35;101394.88;;;12.81;100.00
6028;BME280;3042;43.194;27.646;2023-04-24T01:51:02;101569.69;;;13.78;100.00
6028;BME280;3042;43.194;27.646;2023-04-24T01:53:29;101576.16;;;13.68;100.00
6028;BME280;3042;43.194;27.646;2023-04-24T01:55:57;101438.84;;;12.78;100.00
6028;BME280;3042;43.194;27.646;2023-04-24T01:58:26;101566.31;;;13.61;100.00
6028;BME280;3042;43.194;27.646;2023-04-24T02:00:56;101569.88;;;13.63;100.00
6028;BME280;3042;43.194;27.646;2023-04-24T02:03:25;101575.66;;;13.57;100.00
6028;BME280;3042;43.194;27.646;2023-04-24T02:05:52;101574.56;;;13.52;100.00
6028;BME280;3042;43.194;27.646;2023-04-24T02:08:19;101570.34;;;13.54;100.00
6028;BME280;3042;43.194;27.646;2023-04-24T02:10:46;101559.66;;;13.48;100.00
6028;BME280;3042;43.194;27.646;2023-04-24T02:13:13;101572.31;;;13.40;100.00
6028;BME280;3042;43.194;27.646;2023-04-24T02:15:42;101568.75;;;13.38;100.00
6028;BME280;3042;43.194;27.646;2023-04-24T02:18:09;101573.81;;;13.35;100.00
6028;BME280;3042;43.194;27.646;2023-04-24T02:20:38;101562.53;;;13.35;100.00
6028;BME280;3042;43.194;27.646;2023-04-24T02:23:05;101576.06;;;13.27;100.00
6028;BME280;3042;43.194;27.646;2023-04-24T02:25:33;101567.09;;;13.22;100.00
6028;BME280;3042;43.194;27.646;2023-04-24T02:28:00;101416.19;;;12.38;100.00
6028;BME280;3042;43.194;27.646;2023-04-24T02:30:28;101534.00;;;12.99;100.00
6028;BME280;3042;43.194;27.646;2023-04-24T02:32:57;101563.72;;;13.05;100.00
6028;BME280;3042;43.194;27.646;2023-04-24T02:35:24;101520.63;;;12.72;100.00
6028;BME280;3042;43.194;27.646;2023-04-24T02:37:51;101496.91;;;12.64;100.00
6028;BME280;3042;43.194;27.646;2023-04-24T02:40:19;101507.72;;;12.73;100.00
6028;BME280;3042;43.194;27.646;2023-04-24T02:42:46;101557.56;;;13.03;100.00
6028;BME280;3042;43.194;27.646;2023-04-24T02:45:13;101562.84;;;13.05;100.00
6028;BME280;3042;43.194;27.646;2023-04-24T02:47:40;101559.16;;;13.00;100.00
6028;BME280;3042;43.194;27.646;2023-04-24T02:50:09;101422.28;;;12.21;100.00
6028;BME280;3042;43.194;27.646;2023-04-24T02:52:36;101559.16;;;13.00;100.00
6028;BME280;3042;43.194;27.646;2023-04-24T02:55:04;101525.19;;;12.59;100.00
6028;BME280;3042;43.194;27.646;2023-04-24T02:57:31;101586.47;;;12.75;100.00
6028;BME280;3042;43.194;27.646;2023-04-24T02:59:58;101578.09;;;12.63;100.00
6028;BME280;3042;43.194;27.646;2023-04-24T03:02:25;101577.41;;;12.49;100.00
6028;BME280;3042;43.194;27.646;2023-04-24T03:04:52;101573.94;;;12.49;100.00
6028;BME280;3042;43.194;27.646;2023-04-24T03:07:22;101564.91;;;12.58;100.00
6028;BME280;3042;43.194;27.646;2023-04-24T03:09:49;101558.84;;;12.58;100.00
6028;BME280;3042;43.194;27.646;2023-04-24T03:12:16;101562.53;;;12.63;100.00
6028;BME280;3042;43.194;27.646;2023-04-24T03:14:43;101556.84;;;12.70;100.00
6028;BME280;3042;43.194;27.646;2023-04-24T03:17:11;101560.25;;;12.69;100.00
6028;BME280;3042;43.194;27.646;2023-04-24T03:19:38;101371.50;;;11.38;100.00
6028;BME280;3042;43.194;27.646;2023-04-24T03:22:05;101564.25;;;12.62;100.00
6028;BME280;3042;43.194;27.646;2023-04-24T03:24:33;101463.31;;;11.79;100.00
6028;BME280;3042;43.194;27.646;2023-04-24T03:27:00;101564.47;;;12.67;100.00
6028;BME280;3042;43.194;27.646;2023-04-24T03:29:28;101548.75;;;12.64;100.00
6028;BME280;3042;43.194;27.646;2023-04-24T03:31:55;101563.31;;;12.78;100.00
6028;BME280;3042;43.194;27.646;2023-04-24T03:34:22;101332.81;;;11.57;100.00
6028;BME280;3042;43.194;27.646;2023-04-24T03:36:49;101553.22;;;13.02;100.00
6028;BME280;3042;43.194;27.646;2023-04-24T03:39:16;101553.78;;;13.15;100.00
6028;BME280;3042;43.194;27.646;2023-04-24T03:41:45;101554.13;;;13.22;100.00
6028;BME280;3042;43.194;27.646;2023-04-24T03:44:12;101456.63;;;12.53;100.00
6028;BME280;3042;43.194;27.646;2023-04-24T03:46:39;101553.16;;;13.20;100.00
6028;BME280;3042;43.194;27.646;2023-04-24T03:49:06;101555.09;;;13.24;100.00
6028;BME280;3042;43.194;27.646;2023-04-24T03:51:33;101591.75;;;13.30;100.00
6028;BME280;3042;43.194;27.646;2023-04-24T03:54:00;101522.28;;;13.07;100.00
6028;BME280;3042;43.194;27.646;2023-04-24T03:56:28;101554.88;;;13.38;100.00
6028;BME280;3042;43.194;27.646;2023-04-24T03:58:57;101550.47;;;13.55;100.00
6028;BME280;3042;43.194;27.646;2023-04-24T04:01:24;101542.59;;;13.92;100.00
6028;BME280;3042;43.194;27.646;2023-04-24T04:03:51;101530.09;;;14.45;100.00
6028;BME280;3042;43.194;27.646;2023-04-24T04:06:18;101537.88;;;15.08;100.00
6028;BME280;3042;43.194;27.646;2023-04-24T04:08:47;101532.00;;;15.60;100.00
6028;BME280;3042;43.194;27.646;2023-04-24T04:11:14;101513.31;;;16.21;100.00
6028;BME280;3042;43.194;27.646;2023-04-24T04:13:41;101362.34;;;16.02;100.00
6028;BME280;3042;43.194;27.646;2023-04-24T04:16:10;101498.53;;;17.32;100.00
6028;BME280;3042;43.194;27.646;2023-04-24T04:18:37;101397.41;;;17.26;100.00
6028;BME280;3042;43.194;27.646;2023-04-24T04:21:04;101475.22;;;18.37;100.00
6028;BME280;3042;43.194;27.646;2023-04-24T04:23:32;101472.72;;;19.18;100.00
6028;BME280;3042;43.194;27.646;2023-04-24T04:26:03;101444.19;;;19.78;100.00
6028;BME280;3042;43.194;27.646;2023-04-24T04:28:31;101452.56;;;20.60;100.00
6028;BME280;3042;43.194;27.646;2023-04-24T04:30:59;101327.34;;;20.58;100.00
6028;BME280;3042;43.194;27.646;2023-04-24T04:33:27;101438.66;;;22.28;100.00
6028;BME280;3042;43.194;27.646;2023-04-24T04:35:55;101426.88;;;23.19;100.00
6028;BME280;3042;43.194;27.646;2023-04-24T04:38:23;101411.22;;;23.99;100.00
6028;BME280;3042;43.194;27.646;2023-04-24T04:40:52;101408.44;;;24.79;100.00
6028;BME280;3042;43.194;27.646;2023-04-24T04:43:19;101379.19;;;25.16;98.55
6028;BME280;3042;43.194;27.646;2023-04-24T04:45:46;101400.97;;;25.61;94.20
6028;BME280;3042;43.194;27.646;2023-04-24T04:48:13;101397.41;;;25.63;88.41
6028;BME280;3042;43.194;27.646;2023-04-24T04:50:44;101398.47;;;25.41;84.29
6028;BME280;3042;43.194;27.646;2023-04-24T04:53:11;101412.53;;;25.44;82.35
6028;BME280;3042;43.194;27.646;2023-04-24T04:55:39;101427.69;;;25.21;81.48
6028;BME280;3042;43.194;27.646;2023-04-24T04:58:06;101428.50;;;25.32;82.54
6028;BME280;3042;43.194;27.646;2023-04-24T05:00:33;101412.56;;;25.41;81.07
6028;BME280;3042;43.194;27.646;2023-04-24T05:03:01;101348.84;;;25.69;80.75
6028;BME280;3042;43.194;27.646;2023-04-24T05:05:28;101368.41;;;26.48;78.77
6028;BME280;3042;43.194;27.646;2023-04-24T05:07:57;101315.75;;;26.89;77.18
6028;BME280;3042;43.194;27.646;2023-04-24T05:10:24;101344.91;;;27.52;74.00
6028;BME280;3042;43.194;27.646;2023-04-24T05:12:51;101338.16;;;27.86;71.99
6028;BME280;3042;43.194;27.646;2023-04-24T05:15:18;101344.91;;;28.05;71.03
6028;BME280;3042;43.194;27.646;2023-04-24T05:17:45;101290.66;;;27.67;70.11
6028;BME280;3042;43.194;27.646;2023-04-24T05:20:25;101342.03;;;28.16;69.85
6028;BME280;3042;43.194;27.646;2023-04-24T05:23:04;101270.50;;;27.55;69.72
6028;BME280;3042;43.194;27.646;2023-04-24T05:25:32;101354.78;;;27.98;70.00
6028;BME280;3042;43.194;27.646;2023-04-24T05:28:00;101362.41;;;27.66;70.94
6028;BME280;3042;43.194;27.646;2023-04-24T05:30:28;101366.09;;;27.55;71.11
6028;BME280;3042;43.194;27.646;2023-04-24T05:32:55;101363.81;;;27.31;71.73
6028;BME280;3042;43.194;27.646;2023-04-24T05:35:22;101381.53;;;27.30;72.15
6028;BME280;3042;43.194;27.646;2023-04-24T05:37:49;100716.69;;;23.26;72.59
6028;BME280;3042;43.194;27.646;2023-04-24T05:40:18;101392.56;;;26.98;73.95
6028;BME280;3042;43.194;27.646;2023-04-24T05:42:45;101311.13;;;26.33;74.71
6028;BME280;3042;43.194;27.646;2023-04-24T05:45:12;101398.31;;;26.60;75.06
6028;BME280;3042;43.194;27.646;2023-04-24T05:47:42;101055.59;;;24.10;76.52
6028;BME280;3042;43.194;27.646;2023-04-24T05:50:10;101314.41;;;25.72;78.23
6028;BME280;3042;43.194;27.646;2023-04-24T05:52:37;101417.19;;;26.30;79.80
6028;BME280;3042;43.194;27.646;2023-04-24T05:55:05;101412.69;;;26.36;80.76
6028;BME280;3042;43.194;27.646;2023-04-24T05:57:34;101404.66;;;26.45;81.51
6028;BME280;3042;43.194;27.646;2023-04-24T06:00:01;101395.88;;;26.40;82.47
6028;BME280;3042;43.194;27.646;2023-04-24T06:02:30;101229.78;;;25.63;82.47
6028;BME280;3042;43.194;27.646;2023-04-24T06:05:00;101374.31;;;26.73;82.56
6028;BME280;3042;43.194;27.646;2023-04-24T06:07:30;101379.13;;;27.10;81.43
6028;BME280;3042;43.194;27.646;2023-04-24T06:09:57;101375.72;;;26.99;81.70
6028;BME280;3042;43.194;27.646;2023-04-24T06:12:25;101365.28;;;26.09;82.04
6028;BME280;3042;43.194;27.646;2023-04-24T06:14:54;101414.69;;;26.14;84.54
6028;BME280;3042;43.194;27.646;2023-04-24T06:17:22;101304.19;;;25.26;84.22
6028;BME280;3042;43.194;27.646;2023-04-24T06:19:49;101377.97;;;25.66;84.81
6028;BME280;3042;43.194;27.646;2023-04-24T06:22:16;101302.41;;;25.31;85.12
6028;BME280;3042;43.194;27.646;2023-04-24T06:24:43;101352.44;;;25.59;84.69
6028;BME280;3042;43.194;27.646;2023-04-24T06:27:10;101239.59;;;25.52;83.67
6028;BME280;3042;43.194;27.646;2023-04-24T06:29:37;101388.69;;;26.54;82.48
6028;BME280;3042;43.194;27.646;2023-04-24T06:32:06;101332.41;;;26.27;81.15
6028;BME280;3042;43.194;27.646;2023-04-24T06:34:33;101351.91;;;26.98;82.91
6028;BME280;3042;43.194;27.646;2023-04-24T06:37:02;101365.25;;;26.90;80.96
6028;BME280;3042;43.194;27.646;2023-04-24T06:39:29;101354.38;;;27.08;79.87
6028;BME280;3042;43.194;27.646;2023-04-24T06:41:58;101335.69;;;27.75;80.12
6028;BME280;3042;43.194;27.646;2023-04-24T06:44:26;101324.94;;;27.84;78.45
6028;BME280;3042;43.194;27.646;2023-04-24T06:46:53;101207.09;;;26.84;79.94
6028;BME280;3042;43.194;27.646;2023-04-24T06:49:23;100795.59;;;23.55;79.64
6028;BME280;3042;43.194;27.646;2023-04-24T06:51:50;101385.00;;;26.67;83.57
6028;BME280;3042;43.194;27.646;2023-04-24T06:54:17;101403.91;;;26.32;82.86
6028;BME280;3042;43.194;27.646;2023-04-24T06:56:44;101399.53;;;26.26;83.04
6028;BME280;3042;43.194;27.646;2023-04-24T06:59:13;101404.91;;;26.20;83.57
6028;BME280;3042;43.194;27.646;2023-04-24T07:01:40;101409.47;;;26.06;81.93
6028;BME280;3042;43.194;27.646;2023-04-24T07:04:07;101415.44;;;26.26;82.52
6028;BME280;3042;43.194;27.646;2023-04-24T07:06:48;101290.00;;;25.35;81.83
6028;BME280;3042;43.194;27.646;2023-04-24T07:09:16;101238.22;;;25.01;83.79
6028;BME280;3042;43.194;27.646;2023-04-24T07:11:45;101408.84;;;25.70;81.99
6028;BME280;3042;43.194;27.646;2023-04-24T07:14:13;101428.56;;;25.24;82.27
6028;BME280;3042;43.194;27.646;2023-04-24T07:16:40;101432.09;;;25.13;82.98
6028;BME280;3042;43.194;27.646;2023-04-24T07:19:08;101418.78;;;25.34;80.60
6028;BME280;3042;43.194;27.646;2023-04-24T07:21:35;101069.13;;;23.35;81.55
6028;BME280;3042;43.194;27.646;2023-04-24T07:24:04;101433.00;;;25.09;82.43
6028;BME280;3042;43.194;27.646;2023-04-24T07:26:34;101433.88;;;25.04;81.53
6028;BME280;3042;43.194;27.646;2023-04-24T07:29:02;101316.78;;;24.82;80.80
6028;BME280;3042;43.194;27.646;2023-04-24T07:31:31;101398.13;;;25.88;78.76
6028;BME280;3042;43.194;27.646;2023-04-24T07:33:59;101415.28;;;25.27;76.19
6028;BME280;3042;43.194;27.646;2023-04-24T07:36:32;101399.03;;;25.80;78.17
6028;BME280;3042;43.194;27.646;2023-04-24T07:39:01;101435.66;;;25.05;77.50
6028;BME280;3042;43.194;27.646;2023-04-24T07:41:30;101404.00;;;24.84;75.39
6028;BME280;3042;43.194;27.646;2023-04-24T07:43:57;101405.47;;;25.46;75.72
6028;BME280;3042;43.194;27.646;2023-04-24T07:46:33;100876.97;;;22.09;75.05
6028;BME280;3042;43.194;27.646;2023-04-24T07:49:02;101402.31;;;24.71;73.77
6028;BME280;3042;43.194;27.646;2023-04-24T07:51:30;101107.84;;;23.10;69.86
6028;BME280;3042;43.194;27.646;2023-04-24T07:53:59;101317.94;;;23.85;71.66
6028;BME280;3042;43.194;27.646;2023-04-24T07:56:26;101434.06;;;24.40;70.45
6028;BME280;3042;43.194;27.646;2023-04-24T07:58:58;101446.41;;;24.38;68.71
6028;BME280;3042;43.194;27.646;2023-04-24T08:01:25;101439.34;;;24.37;69.25
6028;BME280;3042;43.194;27.646;2023-04-24T08:03:52;101441.09;;;24.35;68.87
6028;BME280;3042;43.194;27.646;2023-04-24T08:06:19;101453.44;;;23.99;69.79
6028;BME280;3042;43.194;27.646;2023-04-24T08:08:47;101351.28;;;23.09;70.84
6028;BME280;3042;43.194;27.646;2023-04-24T08:11:14;101422.63;;;24.27;71.58
6028;BME280;3042;43.194;27.646;2023-04-24T08:13:41;101421.75;;;24.33;69.93
6028;BME280;3042;43.194;27.646;2023-04-24T08:16:09;101377.75;;;23.95;72.24
6028;BME280;3042;43.194;27.646;2023-04-24T08:18:37;101421.72;;;24.39;71.98
6028;BME280;3042;43.194;27.646;2023-04-24T08:21:04;101378.66;;;23.91;70.76
6028;BME280;3042;43.194;27.646;2023-04-24T08:23:31;101427.03;;;24.02;70.51
6028;BME280;3042;43.194;27.646;2023-04-24T08:25:58;101400.59;;;24.36;69.72
6028;BME280;3042;43.194;27.646;2023-04-24T08:28:27;101400.59;;;24.36;70.95
6028;BME280;3042;43.194;27.646;2023-04-24T08:30:54;101235.28;;;23.03;70.83
6028;BME280;3042;43.194;27.646;2023-04-24T08:33:23;101400.59;;;24.48;73.31
6028;BME280;3042;43.194;27.646;2023-04-24T08:35:50;100933.06;;;21.51;71.73
6028;BME280;3042;43.194;27.646;2023-04-24T08:38:17;101268.69;;;23.77;68.09
6028;BME280;3042;43.194;27.646;2023-04-24T08:40:45;101091.16;;;22.68;71.24
6028;BME280;3042;43.194;27.646;2023-04-24T08:43:15;101386.50;;;24.44;68.01
6028;BME280;3042;43.194;27.646;2023-04-24T08:45:43;101386.50;;;24.43;67.18
6028;BME280;3042;43.194;27.646;2023-04-24T08:48:10;101391.81;;;24.35;68.97
6028;BME280;3042;43.194;27.646;2023-04-24T08:50:40;101021.78;;;22.23;66.94
6028;BME280;3042;43.194;27.646;2023-04-24T08:53:08;101394.47;;;24.18;66.30
6028;BME280;3042;43.194;27.646;2023-04-24T08:55:36;101405.03;;;24.12;66.67
6028;BME280;3042;43.194;27.646;2023-04-24T08:58:04;100823.31;;;20.82;66.19
6028;BME280;3042;43.194;27.646;2023-04-24T09:00:31;101378.59;;;24.32;65.75
6028;BME280;3042;43.194;27.646;2023-04-24T09:03:00;101268.50;;;24.48;68.32
6028;BME280;3042;43.194;27.646;2023-04-24T09:05:28;101270.41;;;23.66;64.97
6028;BME280;3042;43.194;27.646;2023-04-24T09:07:57;101375.06;;;24.36;67.22
6028;BME280;3042;43.194;27.646;2023-04-24T09:10:26;101390.06;;;24.08;65.45
6028;BME280;3042;43.194;27.646;2023-04-24T09:12:56;101350.25;;;24.87;66.30
6028;BME280;3042;43.194;27.646;2023-04-24T09:15:27;101336.88;;;25.10;66.79
6028;BME280;3042;43.194;27.646;2023-04-24T09:17:55;101308.09;;;24.43;64.25
6028;BME280;3042;43.194;27.646;2023-04-24T09:20:22;101327.19;;;25.15;64.88
6028;BME280;3042;43.194;27.646;2023-04-24T09:22:53;101336.91;;;25.06;65.96
6028;BME280;3042;43.194;27.646;2023-04-24T09:25:25;101326.22;;;25.28;65.15
6028;BME280;3042;43.194;27.646;2023-04-24T09:28:00;101313.72;;;25.48;64.81
6028;BME280;3042;43.194;27.646;2023-04-24T09:30:28;101332.75;;;24.59;63.88
6028;BME280;3042;43.194;27.646;2023-04-24T09:33:10;101336.91;;;25.06;62.03
6028;BME280;3042;43.194;27.646;2023-04-24T09:35:40;101311.06;;;25.50;63.19
6028;BME280;3042;43.194;27.646;2023-04-24T09:38:07;101333.41;;;25.08;64.09
6028;BME280;3042;43.194;27.646;2023-04-24T09:40:36;101055.84;;;23.61;63.67
6028;BME280;3042;43.194;27.646;2023-04-24T09:43:03;101292.28;;;25.78;62.46
6028;BME280;3042;43.194;27.646;2023-04-24T09:45:35;101233.03;;;24.89;64.98
6028;BME280;3042;43.194;27.646;2023-04-24T09:48:03;101324.56;;;25.10;63.75
6028;BME280;3042;43.194;27.646;2023-04-24T09:50:32;101308.50;;;25.39;64.67
6028;BME280;3042;43.194;27.646;2023-04-24T09:53:02;101310.28;;;25.40;63.90
6028;BME280;3042;43.194;27.646;2023-04-24T09:55:30;101297.75;;;25.59;66.55
6028;BME280;3042;43.194;27.646;2023-04-24T09:58:01;101139.31;;;23.85;61.43
6028;BME280;3042;43.194;27.646;2023-04-24T10:00:32;101317.59;;;24.98;63.79
6028;BME280;3042;43.194;27.646;2023-04-24T10:03:01;101315.72;;;25.10;63.00
6028;BME280;3042;43.194;27.646;2023-04-24T10:05:32;101213.91;;;24.41;62.56
6028;BME280;3042;43.194;27.646;2023-04-24T10:08:02;101280.06;;;25.63;64.47
6028;BME280;3042;43.194;27.646;2023-04-24T10:10:31;101308.59;;;25.27;63.76
6028;BME280;3042;43.194;27.646;2023-04-24T10:13:00;101295.28;;;25.38;62.18
6028;BME280;3042;43.194;27.646;2023-04-24T10:15:28;101310.44;;;25.10;61.40
6028;BME280;3042;43.194;27.646;2023-04-24T10:17:58;101247.22;;;24.70;59.96
6028;BME280;3042;43.194;27.646;2023-04-24T10:20:27;101295.41;;;25.21;60.26
6028;BME280;3042;43.194;27.646;2023-04-24T10:22:57;101316.75;;;24.84;61.92
6028;BME280;3042;43.194;27.646;2023-04-24T10:25:26;101293.75;;;25.03;59.29
6028;BME280;3042;43.194;27.646;2023-04-24T10:27:54;101270.44;;;25.56;60.38
6028;BME280;3042;43.194;27.646;2023-04-24T10:30:28;101227.81;;;24.78;57.78
6028;BME280;3042;43.194;27.646;2023-04-24T10:32:55;101265.44;;;25.17;61.06
6028;BME280;3042;43.194;27.646;2023-04-24T10:35:23;101289.19;;;25.31;59.81
6028;BME280;3042;43.194;27.646;2023-04-24T10:37:55;101280.38;;;25.29;57.86
6028;BME280;3042;43.194;27.646;2023-04-24T10:40:27;101272.28;;;25.44;59.58
6028;BME280;3042;43.194;27.646;2023-04-24T10:42:56;101251.41;;;25.04;59.87
6028;BME280;3042;43.194;27.646;2023-04-24T10:45:24;101283.91;;;25.25;58.61
6028;BME280;3042;43.194;27.646;2023-04-24T10:47:58;101003.22;;;23.26;58.65
6028;BME280;3042;43.194;27.646;2023-04-24T10:50:27;101277.75;;;25.24;59.10
6028;BME280;3042;43.194;27.646;2023-04-24T10:53:05;101274.25;;;25.22;59.51
6028;BME280;3042;43.194;27.646;2023-04-24T10:55:43;101262.53;;;25.49;58.93
6028;BME280;3042;43.194;27.646;2023-04-24T10:58:10;101253.75;;;25.47;57.59
6028;BME280;3042;43.194;27.646;2023-04-24T11:00:39;101256.38;;;25.52;58.77
6028;BME280;3042;43.194;27.646;2023-04-24T11:03:23;101247.59;;;25.45;58.61
6028;BME280;3042;43.194;27.646;2023-04-24T11:05:54;101235.88;;;25.71;58.10
6028;BME280;3042;43.194;27.646;2023-04-24T11:08:37;101089.00;;;24.17;58.35
6028;BME280;3042;43.194;27.646;2023-04-24T11:11:09;101241.28;;;25.59;57.67
6028;BME280;3042;43.194;27.646;2023-04-24T11:14:05;101237.81;;;25.54;56.60
6028;BME280;3042;43.194;27.646;2023-04-24T11:16:39;101193.91;;;25.34;60.42
6028;BME280;3042;43.194;27.646;2023-04-24T11:19:18;101242.25;;;25.50;60.69
6028;BME280;3042;43.194;27.646;2023-04-24T11:21:47;101235.16;;;25.57;59.67
6028;BME280;3042;43.194;27.646;2023-04-24T11:24:38;101179.47;;;25.63;64.05
6028;BME280;3042;43.194;27.646;2023-04-24T11:27:09;101207.66;;;25.68;63.09
6028;BME280;3042;43.194;27.646;2023-04-24T11:29:44;101253.91;;;25.26;63.62
6028;BME280;3042;43.194;27.646;2023-04-24T11:32:17;101073.84;;;24.44;64.59
6028;BME280;3042;43.194;27.646;2023-04-24T11:34:51;101243.09;;;25.54;65.87
6028;BME280;3042;43.194;27.646;2023-04-24T11:37:19;101248.63;;;25.29;64.97
6028;BME280;3042;43.194;27.646;2023-04-24T11:39:46;101249.53;;;25.26;64.67
6028;BME280;3042;43.194;27.646;2023-04-24T11:42:15;101259.41;;;24.95;63.56
6028;BME280;3042;43.194;27.646;2023-04-24T11:44:47;101249.63;;;25.05;66.67
6028;BME280;3042;43.194;27.646;2023-04-24T11:47:28;101268.09;;;25.19;67.07
6028;BME280;3042;43.194;27.646;2023-04-24T11:50:03;101259.31;;;25.11;65.42
6028;BME280;3042;43.194;27.646;2023-04-24T11:52:31;101262.88;;;25.00;63.61
6028;BME280;3042;43.194;27.646;2023-04-24T11:54:59;101255.81;;;25.05;64.84
6028;BME280;3042;43.194;27.646;2023-04-24T11:57:26;101242.56;;;25.09;65.82
6028;BME280;3042;43.194;27.646;2023-04-24T11:59:59;101264.84;;;24.74;65.38
6028;BME280;3042;43.194;27.646;2023-04-24T12:02:26;101255.81;;;25.05;65.72
6028;BME280;3042;43.194;27.646;2023-04-24T12:04:54;101215.59;;;24.57;64.69
6028;BME280;3042;43.194;27.646;2023-04-24T12:07:23;101253.16;;;25.10;68.45
6028;BME280;3042;43.194;27.646;2023-04-24T12:09:56;101256.06;;;24.69;67.72
6028;BME280;3042;43.194;27.646;2023-04-24T12:12:30;101282.59;;;24.47;68.93
6028;BME280;3042;43.194;27.646;2023-04-24T12:14:58;101270.25;;;24.52;69.34
6028;BME280;3042;43.194;27.646;2023-04-24T12:17:27;101275.53;;;24.43;69.94
6028;BME280;3042;43.194;27.646;2023-04-24T12:19:58;101097.31;;;23.01;69.14
6028;BME280;3042;43.194;27.646;2023-04-24T12:22:36;101301.22;;;23.78;69.70
6028;BME280;3042;43.194;27.646;2023-04-24T12:25:10;101263.34;;;24.08;70.38
6028;BME280;3042;43.194;27.646;2023-04-24T12:27:42;101256.13;;;24.56;69.53
6028;BME280;3042;43.194;27.646;2023-04-24T12:30:12;101249.13;;;24.49;69.56
6028;BME280;3042;43.194;27.646;2023-04-24T12:32:42;101246.38;;;24.66;70.04
6028;BME280;3042;43.194;27.646;2023-04-24T12:35:27;101260.63;;;24.28;71.23
6028;BME280;3042;43.194;27.646;2023-04-24T12:38:06;101053.22;;;23.55;70.76
6028;BME280;3042;43.194;27.646;2023-04-24T12:40:34;101265.06;;;24.21;71.02
6028;BME280;3042;43.194;27.646;2023-04-24T12:43:01;101261.44;;;24.41;71.99
6028;BME280;3042;43.194;27.646;2023-04-24T12:45:28;101277.44;;;24.01;69.88
6028;BME280;3042;43.194;27.646;2023-04-24T12:47:56;101280.97;;;23.72;69.75
6028;BME280;3042;43.194;27.646;2023-04-24T12:50:23;101268.66;;;23.93;70.33
6028;BME280;3042;43.194;27.646;2023-04-24T12:52:50;100932.25;;;22.01;71.18
6028;BME280;3042;43.194;27.646;2023-04-24T12:55:19;101253.69;;;23.92;69.74
6028;BME280;3042;43.194;27.646;2023-04-24T12:57:46;101194.78;;;23.65;71.36
6028;BME280;3042;43.194;27.646;2023-04-24T13:00:14;101257.25;;;23.80;70.61
6028;BME280;3042;43.194;27.646;2023-04-24T13:02:41;101222.03;;;23.70;71.51
6028;BME280;3042;43.194;27.646;2023-04-24T13:05:13;100902.44;;;22.39;71.01